sensor_id;sensor_type;location;lat;lon;timestamp;P1;durP1;ratioP1;P2;durP2;ratioP2
83119;SDS011;73001;51.784;4.660;2024-02-04T00:00:08;11.45;;;10.30;;
83119;SDS011;73001;51.784;4.660;2024-02-04T00:02:36;12.06;;;10.82;;
83119;SDS011;73001;51.784;4.660;2024-02-04T00:05:02;12.16;;;10.87;;
83119;SDS011;73001;51.784;4.660;2024-02-04T00:07:28;12.56;;;11.21;;
83119;SDS011;73001;51.784;4.660;2024-02-04T00:09:53;12.41;;;11.31;;
83119;SDS011;73001;51.784;4.660;2024-02-04T00:12:19;13.74;;;12.14;;
83119;SDS011;73001;51.784;4.660;2024-02-04T00:14:44;13.22;;;11.90;;
83119;SDS011;73001;51.784;4.660;2024-02-04T00:17:10;13.38;;;12.18;;
83119;SDS011;73001;51.784;4.660;2024-02-04T00:19:36;13.18;;;12.01;;
83119;SDS011;73001;51.784;4.660;2024-02-04T00:22:01;13.71;;;12.21;;
83119;SDS011;73001;51.784;4.660;2024-02-04T00:24:26;12.60;;;11.55;;
83119;SDS011;73001;51.784;4.660;2024-02-04T00:26:52;13.27;;;12.27;;
83119;SDS011;73001;51.784;4.660;2024-02-04T00:29:17;13.30;;;12.19;;
83119;SDS011;73001;51.784;4.660;2024-02-04T00:31:43;13.54;;;12.27;;
83119;SDS011;73001;51.784;4.660;2024-02-04T00:34:08;13.17;;;12.09;;
83119;SDS011;73001;51.784;4.660;2024-02-04T00:36:34;13.30;;;12.09;;
83119;SDS011;73001;51.784;4.660;2024-02-04T00:38:59;12.75;;;11.92;;
83119;SDS011;73001;51.784;4.660;2024-02-04T00:41:25;12.73;;;11.79;;
83119;SDS011;73001;51.784;4.660;2024-02-04T00:43:50;13.15;;;12.03;;
83119;SDS011;73001;51.784;4.660;2024-02-04T00:46:16;14.03;;;12.59;;
83119;SDS011;73001;51.784;4.660;2024-02-04T00:48:42;14.30;;;12.94;;
83119;SDS011;73001;51.784;4.660;2024-02-04T00:51:07;13.47;;;12.33;;
83119;SDS011;73001;51.784;4.660;2024-02-04T00:53:32;13.08;;;12.15;;
83119;SDS011;73001;51.784;4.660;2024-02-04T00:56:02;13.33;;;12.09;;
83119;SDS011;73001;51.784;4.660;2024-02-04T00:58:28;12.98;;;11.82;;
83119;SDS011;73001;51.784;4.660;2024-02-04T01:00:54;14.28;;;12.78;;
83119;SDS011;73001;51.784;4.660;2024-02-04T01:03:19;13.36;;;12.26;;
83119;SDS011;73001;51.784;4.660;2024-02-04T01:05:45;14.02;;;12.45;;
83119;SDS011;73001;51.784;4.660;2024-02-04T01:08:10;13.87;;;12.46;;
83119;SDS011;73001;51.784;4.660;2024-02-04T01:10:36;13.82;;;12.32;;
83119;SDS011;73001;51.784;4.660;2024-02-04T01:13:02;14.57;;;12.63;;
83119;SDS011;73001;51.784;4.660;2024-02-04T01:15:28;14.25;;;12.50;;
83119;SDS011;73001;51.784;4.660;2024-02-04T01:17:54;13.74;;;12.55;;
83119;SDS011;73001;51.784;4.660;2024-02-04T01:20:19;13.37;;;11.93;;
83119;SDS011;73001;51.784;4.660;2024-02-04T01:22:45;13.86;;;12.08;;
83119;SDS011;73001;51.784;4.660;2024-02-04T01:25:10;13.62;;;12.06;;
83119;SDS011;73001;51.784;4.660;2024-02-04T01:27:36;14.75;;;12.57;;
83119;SDS011;73001;51.784;4.660;2024-02-04T01:30:01;14.44;;;12.38;;
83119;SDS011;73001;51.784;4.660;2024-02-04T01:32:27;14.68;;;12.41;;
83119;SDS011;73001;51.784;4.660;2024-02-04T01:34:52;13.19;;;11.50;;
83119;SDS011;73001;51.784;4.660;2024-02-04T01:37:18;14.37;;;12.21;;
83119;SDS011;73001;51.784;4.660;2024-02-04T01:39:43;13.98;;;11.96;;
83119;SDS011;73001;51.784;4.660;2024-02-04T01:42:09;13.86;;;12.04;;
83119;SDS011;73001;51.784;4.660;2024-02-04T01:44:35;13.41;;;11.96;;
83119;SDS011;73001;51.784;4.660;2024-02-04T01:47:01;12.72;;;11.33;;
83119;SDS011;73001;51.784;4.660;2024-02-04T01:49:27;12.91;;;11.50;;
83119;SDS011;73001;51.784;4.660;2024-02-04T01:51:53;12.85;;;11.47;;
83119;SDS011;73001;51.784;4.660;2024-02-04T01:54:18;12.23;;;10.96;;
83119;SDS011;73001;51.784;4.660;2024-02-04T01:56:49;12.44;;;11.23;;
83119;SDS011;73001;51.784;4.660;2024-02-04T01:59:15;12.34;;;10.98;;
83119;SDS011;73001;51.784;4.660;2024-02-04T02:01:42;12.85;;;11.37;;
83119;SDS011;73001;51.784;4.660;2024-02-04T02:04:08;12.00;;;10.59;;
83119;SDS011;73001;51.784;4.660;2024-02-04T02:06:33;11.81;;;10.56;;
83119;SDS011;73001;51.784;4.660;2024-02-04T02:09:06;11.63;;;10.28;;
83119;SDS011;73001;51.784;4.660;2024-02-04T02:11:45;12.19;;;10.83;;
83119;SDS011;73001;51.784;4.660;2024-02-04T02:14:23;11.43;;;10.23;;
83119;SDS011;73001;51.784;4.660;2024-02-04T02:16:56;10.72;;;9.54;;
83119;SDS011;73001;51.784;4.660;2024-02-04T02:19:32;12.21;;;10.56;;
83119;SDS011;73001;51.784;4.660;2024-02-04T02:24:51;11.49;;;9.70;;
83119;SDS011;73001;51.784;4.660;2024-02-04T02:27:18;11.42;;;9.89;;
83119;SDS011;73001;51.784;4.660;2024-02-04T02:29:44;10.80;;;9.40;;
83119;SDS011;73001;51.784;4.660;2024-02-04T02:32:10;10.97;;;9.53;;
83119;SDS011;73001;51.784;4.660;2024-02-04T02:34:35;10.63;;;9.13;;
83119;SDS011;73001;51.784;4.660;2024-02-04T02:39:34;10.56;;;9.00;;
83119;SDS011;73001;51.784;4.660;2024-02-04T02:42:10;9.97;;;8.74;;
83119;SDS011;73001;51.784;4.660;2024-02-04T02:44:38;10.10;;;8.83;;
83119;SDS011;73001;51.784;4.660;2024-02-04T02:47:05;10.16;;;8.93;;
83119;SDS011;73001;51.784;4.660;2024-02-04T02:49:32;10.83;;;9.52;;
83119;SDS011;73001;51.784;4.660;2024-02-04T02:51:58;9.37;;;8.53;;
83119;SDS011;73001;51.784;4.660;2024-02-04T02:54:23;9.62;;;8.84;;
83119;SDS011;73001;51.784;4.660;2024-02-04T02:56:49;9.90;;;9.05;;
83119;SDS011;73001;51.784;4.660;2024-02-04T02:59:15;9.50;;;8.85;;
83119;SDS011;73001;51.784;4.660;2024-02-04T03:01:41;9.52;;;8.80;;
83119;SDS011;73001;51.784;4.660;2024-02-04T03:04:06;9.57;;;9.06;;
83119;SDS011;73001;51.784;4.660;2024-02-04T03:06:32;10.09;;;9.39;;
83119;SDS011;73001;51.784;4.660;2024-02-04T03:08:57;10.00;;;9.24;;
83119;SDS011;73001;51.784;4.660;2024-02-04T03:11:23;9.72;;;8.90;;
83119;SDS011;73001;51.784;4.660;2024-02-04T03:13:48;10.28;;;9.41;;
83119;SDS011;73001;51.784;4.660;2024-02-04T03:16:14;10.25;;;9.34;;
83119;SDS011;73001;51.784;4.660;2024-02-04T03:18:40;10.31;;;9.47;;
83119;SDS011;73001;51.784;4.660;2024-02-04T03:21:13;10.16;;;9.50;;
83119;SDS011;73001;51.784;4.660;2024-02-04T03:23:41;9.93;;;9.27;;
83119;SDS011;73001;51.784;4.660;2024-02-04T03:26:08;9.36;;;8.75;;
83119;SDS011;73001;51.784;4.660;2024-02-04T03:28:35;9.11;;;8.55;;
83119;SDS011;73001;51.784;4.660;2024-02-04T03:31:00;9.54;;;9.04;;
83119;SDS011;73001;51.784;4.660;2024-02-04T03:33:26;9.46;;;8.83;;
83119;SDS011;73001;51.784;4.660;2024-02-04T03:35:51;10.09;;;9.29;;
83119;SDS011;73001;51.784;4.660;2024-02-04T03:38:17;10.47;;;9.46;;
83119;SDS011;73001;51.784;4.660;2024-02-04T03:40:42;11.08;;;9.92;;
83119;SDS011;73001;51.784;4.660;2024-02-04T03:43:08;9.32;;;8.52;;
83119;SDS011;73001;51.784;4.660;2024-02-04T03:45:37;8.64;;;8.07;;
83119;SDS011;73001;51.784;4.660;2024-02-04T03:48:03;8.86;;;8.26;;
83119;SDS011;73001;51.784;4.660;2024-02-04T03:50:29;9.33;;;8.79;;
83119;SDS011;73001;51.784;4.660;2024-02-04T03:52:54;9.46;;;8.81;;
83119;SDS011;73001;51.784;4.660;2024-02-04T03:55:19;9.05;;;8.44;;
83119;SDS011;73001;51.784;4.660;2024-02-04T03:57:45;9.56;;;8.84;;
83119;SDS011;73001;51.784;4.660;2024-02-04T04:00:11;9.87;;;9.19;;
83119;SDS011;73001;51.784;4.660;2024-02-04T04:02:37;9.73;;;9.02;;
83119;SDS011;73001;51.784;4.660;2024-02-04T04:05:03;9.71;;;9.23;;
83119;SDS011;73001;51.784;4.660;2024-02-04T04:07:28;9.35;;;8.76;;
83119;SDS011;73001;51.784;4.660;2024-02-04T04:09:54;9.66;;;9.03;;
83119;SDS011;73001;51.784;4.660;2024-02-04T04:12:19;10.19;;;9.43;;
83119;SDS011;73001;51.784;4.660;2024-02-04T04:14:45;9.60;;;9.03;;
83119;SDS011;73001;51.784;4.660;2024-02-04T04:17:10;9.99;;;9.30;;
83119;SDS011;73001;51.784;4.660;2024-02-04T04:19:35;9.43;;;8.88;;
83119;SDS011;73001;51.784;4.660;2024-02-04T04:22:02;9.27;;;8.81;;
83119;SDS011;73001;51.784;4.660;2024-02-04T04:24:28;10.43;;;9.76;;
83119;SDS011;73001;51.784;4.660;2024-02-04T04:26:54;9.91;;;9.14;;
83119;SDS011;73001;51.784;4.660;2024-02-04T04:29:20;9.98;;;9.12;;
83119;SDS011;73001;51.784;4.660;2024-02-04T04:31:45;9.63;;;8.88;;
83119;SDS011;73001;51.784;4.660;2024-02-04T04:34:11;9.52;;;8.94;;
83119;SDS011;73001;51.784;4.660;2024-02-04T04:36:36;9.41;;;8.92;;
83119;SDS011;73001;51.784;4.660;2024-02-04T04:39:02;10.17;;;9.48;;
83119;SDS011;73001;51.784;4.660;2024-02-04T04:41:28;10.28;;;9.33;;
83119;SDS011;73001;51.784;4.660;2024-02-04T04:43:53;10.11;;;9.27;;
83119;SDS011;73001;51.784;4.660;2024-02-04T04:46:19;9.42;;;8.71;;
83119;SDS011;73001;51.784;4.660;2024-02-04T04:48:45;9.17;;;8.52;;
83119;SDS011;73001;51.784;4.660;2024-02-04T04:51:11;9.80;;;9.20;;
83119;SDS011;73001;51.784;4.660;2024-02-04T04:53:37;9.68;;;9.06;;
83119;SDS011;73001;51.784;4.660;2024-02-04T04:56:03;9.34;;;8.62;;
83119;SDS011;73001;51.784;4.660;2024-02-04T04:58:29;9.66;;;8.93;;
83119;SDS011;73001;51.784;4.660;2024-02-04T05:00:54;9.37;;;8.81;;
83119;SDS011;73001;51.784;4.660;2024-02-04T05:03:20;9.21;;;8.76;;
83119;SDS011;73001;51.784;4.660;2024-02-04T05:05:45;9.49;;;9.13;;
83119;SDS011;73001;51.784;4.660;2024-02-04T05:08:12;8.88;;;8.60;;
83119;SDS011;73001;51.784;4.660;2024-02-04T05:10:39;9.19;;;8.83;;
83119;SDS011;73001;51.784;4.660;2024-02-04T05:13:04;9.27;;;8.93;;
83119;SDS011;73001;51.784;4.660;2024-02-04T05:15:30;9.34;;;9.00;;
83119;SDS011;73001;51.784;4.660;2024-02-04T05:17:55;8.76;;;8.42;;
83119;SDS011;73001;51.784;4.660;2024-02-04T05:20:21;9.24;;;8.88;;
83119;SDS011;73001;51.784;4.660;2024-02-04T05:22:46;9.38;;;9.00;;
83119;SDS011;73001;51.784;4.660;2024-02-04T05:25:12;9.34;;;8.96;;
83119;SDS011;73001;51.784;4.660;2024-02-04T05:27:37;9.74;;;9.28;;
83119;SDS011;73001;51.784;4.660;2024-02-04T05:30:03;8.67;;;8.36;;
83119;SDS011;73001;51.784;4.660;2024-02-04T05:32:29;8.32;;;8.07;;
83119;SDS011;73001;51.784;4.660;2024-02-04T05:34:54;8.67;;;8.45;;
83119;SDS011;73001;51.784;4.660;2024-02-04T05:37:20;8.44;;;8.11;;
83119;SDS011;73001;51.784;4.660;2024-02-04T05:39:46;8.58;;;8.33;;
83119;SDS011;73001;51.784;4.660;2024-02-04T05:42:11;8.23;;;7.87;;
83119;SDS011;73001;51.784;4.660;2024-02-04T05:44:37;8.26;;;7.82;;
83119;SDS011;73001;51.784;4.660;2024-02-04T05:47:02;8.07;;;7.68;;
83119;SDS011;73001;51.784;4.660;2024-02-04T05:49:28;7.81;;;7.44;;
83119;SDS011;73001;51.784;4.660;2024-02-04T05:51:53;7.63;;;7.29;;
83119;SDS011;73001;51.784;4.660;2024-02-04T05:54:18;7.91;;;7.53;;
83119;SDS011;73001;51.784;4.660;2024-02-04T05:56:44;7.39;;;7.01;;
83119;SDS011;73001;51.784;4.660;2024-02-04T05:59:09;7.48;;;7.00;;
83119;SDS011;73001;51.784;4.660;2024-02-04T06:01:35;7.73;;;7.14;;
83119;SDS011;73001;51.784;4.660;2024-02-04T06:04:00;7.61;;;7.13;;
83119;SDS011;73001;51.784;4.660;2024-02-04T06:06:26;7.51;;;7.07;;
83119;SDS011;73001;51.784;4.660;2024-02-04T06:08:51;7.37;;;6.91;;
83119;SDS011;73001;51.784;4.660;2024-02-04T06:11:17;7.63;;;7.08;;
83119;SDS011;73001;51.784;4.660;2024-02-04T06:13:43;8.07;;;7.56;;
83119;SDS011;73001;51.784;4.660;2024-02-04T06:16:09;8.00;;;7.53;;
83119;SDS011;73001;51.784;4.660;2024-02-04T06:18:37;7.69;;;7.11;;
83119;SDS011;73001;51.784;4.660;2024-02-04T06:21:04;7.60;;;6.97;;
83119;SDS011;73001;51.784;4.660;2024-02-04T06:23:30;7.78;;;7.14;;
83119;SDS011;73001;51.784;4.660;2024-02-04T06:25:55;7.39;;;6.84;;
83119;SDS011;73001;51.784;4.660;2024-02-04T06:28:21;7.71;;;6.85;;
83119;SDS011;73001;51.784;4.660;2024-02-04T06:30:46;7.63;;;6.75;;
83119;SDS011;73001;51.784;4.660;2024-02-04T06:33:12;7.34;;;6.57;;
83119;SDS011;73001;51.784;4.660;2024-02-04T06:35:37;7.41;;;6.67;;
83119;SDS011;73001;51.784;4.660;2024-02-04T06:38:03;8.03;;;7.23;;
83119;SDS011;73001;51.784;4.660;2024-02-04T06:40:28;7.91;;;7.07;;
83119;SDS011;73001;51.784;4.660;2024-02-04T06:42:54;8.50;;;7.65;;
83119;SDS011;73001;51.784;4.660;2024-02-04T06:45:19;8.01;;;7.27;;
83119;SDS011;73001;51.784;4.660;2024-02-04T06:47:45;7.92;;;7.09;;
83119;SDS011;73001;51.784;4.660;2024-02-04T06:50:10;8.14;;;7.43;;
83119;SDS011;73001;51.784;4.660;2024-02-04T06:52:39;7.69;;;7.15;;
83119;SDS011;73001;51.784;4.660;2024-02-04T06:55:05;7.34;;;6.83;;
83119;SDS011;73001;51.784;4.660;2024-02-04T06:57:31;7.66;;;7.08;;
83119;SDS011;73001;51.784;4.660;2024-02-04T06:59:57;7.51;;;6.85;;
83119;SDS011;73001;51.784;4.660;2024-02-04T07:02:22;6.90;;;6.44;;
83119;SDS011;73001;51.784;4.660;2024-02-04T07:04:47;7.04;;;6.60;;
83119;SDS011;73001;51.784;4.660;2024-02-04T07:07:13;7.01;;;6.62;;
83119;SDS011;73001;51.784;4.660;2024-02-04T07:09:38;6.88;;;6.37;;
83119;SDS011;73001;51.784;4.660;2024-02-04T07:12:04;6.91;;;6.24;;
83119;SDS011;73001;51.784;4.660;2024-02-04T07:14:30;6.61;;;6.09;;
83119;SDS011;73001;51.784;4.660;2024-02-04T07:16:55;6.01;;;5.65;;
83119;SDS011;73001;51.784;4.660;2024-02-04T07:19:21;6.14;;;5.66;;
83119;SDS011;73001;51.784;4.660;2024-02-04T07:21:46;6.37;;;5.94;;
83119;SDS011;73001;51.784;4.660;2024-02-04T07:24:12;6.94;;;6.49;;
83119;SDS011;73001;51.784;4.660;2024-02-04T07:26:37;6.40;;;5.93;;
83119;SDS011;73001;51.784;4.660;2024-02-04T07:29:03;5.77;;;5.33;;
83119;SDS011;73001;51.784;4.660;2024-02-04T07:31:29;6.40;;;5.94;;
83119;SDS011;73001;51.784;4.660;2024-02-04T07:33:55;5.93;;;5.61;;
83119;SDS011;73001;51.784;4.660;2024-02-04T07:36:21;5.95;;;5.64;;
83119;SDS011;73001;51.784;4.660;2024-02-04T07:38:46;5.46;;;5.24;;
83119;SDS011;73001;51.784;4.660;2024-02-04T07:41:15;5.15;;;4.91;;
83119;SDS011;73001;51.784;4.660;2024-02-04T07:43:40;4.99;;;4.74;;
83119;SDS011;73001;51.784;4.660;2024-02-04T07:46:07;4.80;;;4.62;;
83119;SDS011;73001;51.784;4.660;2024-02-04T07:48:33;4.44;;;4.24;;
83119;SDS011;73001;51.784;4.660;2024-02-04T07:50:59;4.92;;;4.57;;
83119;SDS011;73001;51.784;4.660;2024-02-04T07:53:25;5.12;;;4.74;;
83119;SDS011;73001;51.784;4.660;2024-02-04T07:55:50;4.78;;;4.52;;
83119;SDS011;73001;51.784;4.660;2024-02-04T07:58:16;4.80;;;4.52;;
83119;SDS011;73001;51.784;4.660;2024-02-04T08:00:42;4.45;;;4.19;;
83119;SDS011;73001;51.784;4.660;2024-02-04T08:03:07;4.58;;;4.23;;
83119;SDS011;73001;51.784;4.660;2024-02-04T08:05:33;4.65;;;4.24;;
83119;SDS011;73001;51.784;4.660;2024-02-04T08:08:00;4.19;;;3.85;;
83119;SDS011;73001;51.784;4.660;2024-02-04T08:10:26;4.08;;;3.76;;
83119;SDS011;73001;51.784;4.660;2024-02-04T08:12:52;4.34;;;4.00;;
83119;SDS011;73001;51.784;4.660;2024-02-04T08:15:19;4.29;;;3.92;;
83119;SDS011;73001;51.784;4.660;2024-02-04T08:17:45;4.45;;;4.00;;
83119;SDS011;73001;51.784;4.660;2024-02-04T08:20:11;4.63;;;4.26;;
83119;SDS011;73001;51.784;4.660;2024-02-04T08:22:37;5.02;;;4.72;;
83119;SDS011;73001;51.784;4.660;2024-02-04T08:25:06;4.32;;;4.03;;
83119;SDS011;73001;51.784;4.660;2024-02-04T08:27:32;4.56;;;4.16;;
83119;SDS011;73001;51.784;4.660;2024-02-04T08:29:57;4.15;;;3.78;;
83119;SDS011;73001;51.784;4.660;2024-02-04T08:32:23;4.22;;;3.83;;
83119;SDS011;73001;51.784;4.660;2024-02-04T08:34:49;3.98;;;3.66;;
83119;SDS011;73001;51.784;4.660;2024-02-04T08:37:15;3.89;;;3.59;;
83119;SDS011;73001;51.784;4.660;2024-02-04T08:39:40;4.12;;;3.87;;
83119;SDS011;73001;51.784;4.660;2024-02-04T08:42:06;3.93;;;3.63;;
83119;SDS011;73001;51.784;4.660;2024-02-04T08:44:31;4.10;;;3.76;;
83119;SDS011;73001;51.784;4.660;2024-02-04T08:46:56;3.80;;;3.44;;
83119;SDS011;73001;51.784;4.660;2024-02-04T08:49:22;3.99;;;3.61;;
83119;SDS011;73001;51.784;4.660;2024-02-04T08:51:47;3.59;;;3.25;;
83119;SDS011;73001;51.784;4.660;2024-02-04T08:54:13;3.72;;;3.30;;
83119;SDS011;73001;51.784;4.660;2024-02-04T08:56:39;3.72;;;3.28;;
83119;SDS011;73001;51.784;4.660;2024-02-04T08:59:05;3.86;;;3.45;;
83119;SDS011;73001;51.784;4.660;2024-02-04T09:01:31;4.15;;;3.67;;
83119;SDS011;73001;51.784;4.660;2024-02-04T09:03:56;3.96;;;3.44;;
83119;SDS011;73001;51.784;4.660;2024-02-04T09:06:22;4.58;;;3.83;;
83119;SDS011;73001;51.784;4.660;2024-02-04T09:08:47;4.47;;;3.63;;
83119;SDS011;73001;51.784;4.660;2024-02-04T09:11:13;4.55;;;3.72;;
83119;SDS011;73001;51.784;4.660;2024-02-04T09:13:44;5.29;;;4.40;;
83119;SDS011;73001;51.784;4.660;2024-02-04T09:16:10;6.14;;;5.27;;
83119;SDS011;73001;51.784;4.660;2024-02-04T09:18:35;4.53;;;3.88;;
83119;SDS011;73001;51.784;4.660;2024-02-04T09:21:01;4.50;;;3.89;;
83119;SDS011;73001;51.784;4.660;2024-02-04T09:23:27;4.61;;;3.92;;
83119;SDS011;73001;51.784;4.660;2024-02-04T09:25:52;5.47;;;4.63;;
83119;SDS011;73001;51.784;4.660;2024-02-04T09:28:18;5.30;;;4.47;;
83119;SDS011;73001;51.784;4.660;2024-02-04T09:30:43;4.75;;;4.11;;
83119;SDS011;73001;51.784;4.660;2024-02-04T09:33:09;4.33;;;3.74;;
83119;SDS011;73001;51.784;4.660;2024-02-04T09:35:34;4.71;;;3.95;;
83119;SDS011;73001;51.784;4.660;2024-02-04T09:38:00;5.42;;;4.42;;
83119;SDS011;73001;51.784;4.660;2024-02-04T09:40:25;5.10;;;4.13;;
83119;SDS011;73001;51.784;4.660;2024-02-04T09:42:51;5.29;;;4.36;;
83119;SDS011;73001;51.784;4.660;2024-02-04T09:45:17;5.07;;;4.28;;
83119;SDS011;73001;51.784;4.660;2024-02-04T09:47:42;4.27;;;3.61;;
83119;SDS011;73001;51.784;4.660;2024-02-04T09:50:10;4.50;;;3.76;;
83119;SDS011;73001;51.784;4.660;2024-02-04T09:52:37;5.03;;;4.19;;
83119;SDS011;73001;51.784;4.660;2024-02-04T09:55:06;4.59;;;3.87;;
83119;SDS011;73001;51.784;4.660;2024-02-04T09:57:35;5.50;;;4.68;;
83119;SDS011;73001;51.784;4.660;2024-02-04T10:00:04;5.02;;;4.30;;
83119;SDS011;73001;51.784;4.660;2024-02-04T10:02:30;4.54;;;3.78;;
83119;SDS011;73001;51.784;4.660;2024-02-04T10:04:57;5.97;;;4.92;;
83119;SDS011;73001;51.784;4.660;2024-02-04T10:07:23;5.84;;;5.03;;
83119;SDS011;73001;51.784;4.660;2024-02-04T10:09:49;5.51;;;4.85;;
83119;SDS011;73001;51.784;4.660;2024-02-04T10:12:15;4.26;;;3.67;;
83119;SDS011;73001;51.784;4.660;2024-02-04T10:14:41;4.59;;;3.85;;
83119;SDS011;73001;51.784;4.660;2024-02-04T10:17:07;4.47;;;3.72;;
83119;SDS011;73001;51.784;4.660;2024-02-04T10:19:33;4.98;;;4.08;;
83119;SDS011;73001;51.784;4.660;2024-02-04T10:22:01;4.85;;;4.03;;
83119;SDS011;73001;51.784;4.660;2024-02-04T10:24:29;5.14;;;4.09;;
83119;SDS011;73001;51.784;4.660;2024-02-04T10:26:55;5.35;;;4.32;;
83119;SDS011;73001;51.784;4.660;2024-02-04T10:29:22;5.49;;;4.56;;
83119;SDS011;73001;51.784;4.660;2024-02-04T10:31:48;5.65;;;4.77;;
83119;SDS011;73001;51.784;4.660;2024-02-04T10:34:14;5.69;;;4.66;;
83119;SDS011;73001;51.784;4.660;2024-02-04T10:36:39;6.46;;;5.40;;
83119;SDS011;73001;51.784;4.660;2024-02-04T10:39:05;6.34;;;5.67;;
83119;SDS011;73001;51.784;4.660;2024-02-04T10:41:31;5.39;;;4.76;;
83119;SDS011;73001;51.784;4.660;2024-02-04T10:43:59;5.46;;;4.60;;
83119;SDS011;73001;51.784;4.660;2024-02-04T10:46:29;5.19;;;4.28;;
83119;SDS011;73001;51.784;4.660;2024-02-04T10:49:00;6.17;;;5.09;;
83119;SDS011;73001;51.784;4.660;2024-02-04T10:51:28;6.38;;;5.24;;
83119;SDS011;73001;51.784;4.660;2024-02-04T10:53:56;6.04;;;4.95;;
83119;SDS011;73001;51.784;4.660;2024-02-04T10:56:30;6.28;;;5.36;;
83119;SDS011;73001;51.784;4.660;2024-02-04T10:59:01;6.25;;;5.31;;
83119;SDS011;73001;51.784;4.660;2024-02-04T11:01:29;5.63;;;4.95;;
83119;SDS011;73001;51.784;4.660;2024-02-04T11:03:55;6.68;;;5.56;;
83119;SDS011;73001;51.784;4.660;2024-02-04T11:06:22;5.63;;;4.58;;
83119;SDS011;73001;51.784;4.660;2024-02-04T11:08:49;10.06;;;8.67;;
83119;SDS011;73001;51.784;4.660;2024-02-04T11:11:17;7.14;;;6.72;;
83119;SDS011;73001;51.784;4.660;2024-02-04T11:13:44;4.80;;;4.34;;
83119;SDS011;73001;51.784;4.660;2024-02-04T11:16:19;4.91;;;4.31;;
83119;SDS011;73001;51.784;4.660;2024-02-04T11:19:23;4.50;;;3.80;;
83119;SDS011;73001;51.784;4.660;2024-02-04T11:27:55;4.96;;;3.99;;
83119;SDS011;73001;51.784;4.660;2024-02-04T11:30:20;4.68;;;3.90;;
83119;SDS011;73001;51.784;4.660;2024-02-04T11:32:47;5.08;;;4.22;;
83119;SDS011;73001;51.784;4.660;2024-02-04T11:35:13;6.83;;;5.47;;
83119;SDS011;73001;51.784;4.660;2024-02-04T11:37:39;4.53;;;3.67;;
83119;SDS011;73001;51.784;4.660;2024-02-04T11:40:07;4.75;;;3.85;;
83119;SDS011;73001;51.784;4.660;2024-02-04T11:42:33;4.86;;;3.97;;
83119;SDS011;73001;51.784;4.660;2024-02-04T11:45:08;4.86;;;3.92;;
83119;SDS011;73001;51.784;4.660;2024-02-04T11:47:36;5.55;;;4.61;;
83119;SDS011;73001;51.784;4.660;2024-02-04T11:50:03;4.07;;;3.38;;
83119;SDS011;73001;51.784;4.660;2024-02-04T11:52:29;5.55;;;4.59;;
83119;SDS011;73001;51.784;4.660;2024-02-04T11:54:55;4.45;;;3.72;;
83119;SDS011;73001;51.784;4.660;2024-02-04T11:57:20;4.89;;;4.03;;
83119;SDS011;73001;51.784;4.660;2024-02-04T11:59:47;4.52;;;3.72;;
83119;SDS011;73001;51.784;4.660;2024-02-04T12:02:17;4.95;;;3.99;;
83119;SDS011;73001;51.784;4.660;2024-02-04T12:04:43;5.68;;;4.70;;
83119;SDS011;73001;51.784;4.660;2024-02-04T12:07:09;5.10;;;4.41;;
83119;SDS011;73001;51.784;4.660;2024-02-04T12:09:35;3.80;;;3.21;;
83119;SDS011;73001;51.784;4.660;2024-02-04T12:12:03;4.45;;;3.69;;
83119;SDS011;73001;51.784;4.660;2024-02-04T12:14:30;4.77;;;3.87;;
83119;SDS011;73001;51.784;4.660;2024-02-04T12:16:56;4.81;;;3.94;;
83119;SDS011;73001;51.784;4.660;2024-02-04T12:19:25;5.18;;;4.18;;
83119;SDS011;73001;51.784;4.660;2024-02-04T12:21:50;5.60;;;4.69;;
83119;SDS011;73001;51.784;4.660;2024-02-04T12:24:16;6.66;;;5.85;;
83119;SDS011;73001;51.784;4.660;2024-02-04T12:26:42;5.37;;;4.61;;
83119;SDS011;73001;51.784;4.660;2024-02-04T12:29:11;7.74;;;6.68;;
83119;SDS011;73001;51.784;4.660;2024-02-04T12:31:37;6.35;;;5.71;;
83119;SDS011;73001;51.784;4.660;2024-02-04T12:34:02;5.04;;;4.61;;
83119;SDS011;73001;51.784;4.660;2024-02-04T12:36:28;5.31;;;4.87;;
83119;SDS011;73001;51.784;4.660;2024-02-04T12:38:58;3.60;;;3.22;;
83119;SDS011;73001;51.784;4.660;2024-02-04T12:41:35;4.12;;;3.48;;
83119;SDS011;73001;51.784;4.660;2024-02-04T12:44:00;4.81;;;4.10;;
83119;SDS011;73001;51.784;4.660;2024-02-04T12:46:28;4.02;;;3.46;;
83119;SDS011;73001;51.784;4.660;2024-02-04T12:48:57;4.33;;;3.62;;
83119;SDS011;73001;51.784;4.660;2024-02-04T12:51:27;5.28;;;4.47;;
83119;SDS011;73001;51.784;4.660;2024-02-04T12:56:39;7.25;;;6.26;;
83119;SDS011;73001;51.784;4.660;2024-02-04T12:59:11;5.12;;;4.58;;
83119;SDS011;73001;51.784;4.660;2024-02-04T13:01:37;3.80;;;3.38;;
83119;SDS011;73001;51.784;4.660;2024-02-04T13:04:03;4.67;;;4.12;;
83119;SDS011;73001;51.784;4.660;2024-02-04T13:06:29;3.96;;;3.40;;
83119;SDS011;73001;51.784;4.660;2024-02-04T13:08:55;4.07;;;3.42;;
83119;SDS011;73001;51.784;4.660;2024-02-04T13:11:25;4.49;;;3.76;;
83119;SDS011;73001;51.784;4.660;2024-02-04T13:13:51;4.25;;;3.46;;
83119;SDS011;73001;51.784;4.660;2024-02-04T13:16:17;4.64;;;3.69;;
83119;SDS011;73001;51.784;4.660;2024-02-04T13:18:44;4.50;;;3.49;;
83119;SDS011;73001;51.784;4.660;2024-02-04T13:21:17;3.82;;;3.00;;
83119;SDS011;73001;51.784;4.660;2024-02-04T13:23:45;4.99;;;3.93;;
83119;SDS011;73001;51.784;4.660;2024-02-04T13:26:10;4.56;;;3.57;;
83119;SDS011;73001;51.784;4.660;2024-02-04T13:28:36;4.51;;;3.56;;
83119;SDS011;73001;51.784;4.660;2024-02-04T13:31:04;4.80;;;3.69;;
83119;SDS011;73001;51.784;4.660;2024-02-04T13:33:29;4.72;;;3.70;;
83119;SDS011;73001;51.784;4.660;2024-02-04T13:35:55;4.55;;;3.58;;
83119;SDS011;73001;51.784;4.660;2024-02-04T13:38:21;4.74;;;3.73;;
83119;SDS011;73001;51.784;4.660;2024-02-04T13:40:46;5.03;;;4.00;;
83119;SDS011;73001;51.784;4.660;2024-02-04T13:43:11;8.74;;;7.22;;
83119;SDS011;73001;51.784;4.660;2024-02-04T13:45:37;4.00;;;3.46;;
83119;SDS011;73001;51.784;4.660;2024-02-04T13:48:02;5.48;;;4.55;;
83119;SDS011;73001;51.784;4.660;2024-02-04T13:50:28;4.91;;;4.02;;
83119;SDS011;73001;51.784;4.660;2024-02-04T13:52:53;5.38;;;4.50;;
83119;SDS011;73001;51.784;4.660;2024-02-04T13:55:20;7.13;;;5.91;;
83119;SDS011;73001;51.784;4.660;2024-02-04T13:57:45;7.23;;;6.00;;
83119;SDS011;73001;51.784;4.660;2024-02-04T14:00:11;10.98;;;9.53;;
83119;SDS011;73001;51.784;4.660;2024-02-04T14:02:37;5.26;;;4.48;;
83119;SDS011;73001;51.784;4.660;2024-02-04T14:05:04;7.34;;;6.21;;
83119;SDS011;73001;51.784;4.660;2024-02-04T14:07:29;7.59;;;6.17;;
83119;SDS011;73001;51.784;4.660;2024-02-04T14:09:55;12.19;;;9.64;;
83119;SDS011;73001;51.784;4.660;2024-02-04T14:12:20;10.45;;;8.53;;
83119;SDS011;73001;51.784;4.660;2024-02-04T14:14:46;8.71;;;7.03;;
83119;SDS011;73001;51.784;4.660;2024-02-04T14:17:11;17.61;;;14.17;;
83119;SDS011;73001;51.784;4.660;2024-02-04T14:19:37;11.45;;;9.09;;
83119;SDS011;73001;51.784;4.660;2024-02-04T14:22:02;11.62;;;9.18;;
83119;SDS011;73001;51.784;4.660;2024-02-04T14:24:28;9.39;;;7.40;;
83119;SDS011;73001;51.784;4.660;2024-02-04T14:26:57;6.55;;;5.27;;
83119;SDS011;73001;51.784;4.660;2024-02-04T14:29:26;11.33;;;9.07;;
83119;SDS011;73001;51.784;4.660;2024-02-04T14:31:52;7.91;;;6.33;;
83119;SDS011;73001;51.784;4.660;2024-02-04T14:34:17;16.67;;;13.47;;
83119;SDS011;73001;51.784;4.660;2024-02-04T14:36:43;28.84;;;22.51;;
83119;SDS011;73001;51.784;4.660;2024-02-04T14:39:08;14.46;;;11.37;;
83119;SDS011;73001;51.784;4.660;2024-02-04T14:41:35;11.50;;;9.13;;
83119;SDS011;73001;51.784;4.660;2024-02-04T14:44:01;10.19;;;8.07;;
83119;SDS011;73001;51.784;4.660;2024-02-04T14:46:27;16.71;;;12.87;;
83119;SDS011;73001;51.784;4.660;2024-02-04T14:48:52;14.26;;;11.08;;